Albany Township, Maine
Current Conditions -  °F | °C
As of 6:14 AM on Friday 24 Oct 2014 (Local Time) from KBML Reporting Station
Haze Haze  
Wind Chill: 44°   Ceiling: 2000
Heat Index: 44°   Visibility: 6mi
Dew Point: 42°   Wind: 0mph
Humidity: 93%   Direction: NA
Pressure: 29.75"   Gusts: NA
Location:  44.3718°N, 70.8421°W
Report Text: KBML 241014Z AUTO 00000KT 6SM BR FEW007 SCT013 OVC020 07/06 A2975 RMK AO2 T00670056
Loading
Personal Weather Stations






























Interactive Weather Map
Tropical Storm Tracking
New forecast layout! Learn more

10-Day Weather Forecast

Advertisements
Track Severe Weather on mobile